Time;durP1;ratioP1;P1;durP2;ratioP2;P2;SDS_P1;SDS_P2;PMS_P1;PMS_P2;Temp;Humidity;BMP_temperature;BMP_pressure;BME280_temperature;BME280_humidity;BME280_pressure;Samples;Min_cycle;Max_cycle;Signal;HPM_P1;HPM_P2
2024/03/25 00:00:15;;;;;;;3.33;1.20;;;;;;;;;;5046135;28;20116;-77
2024/03/25 00:02:41;;;;;;;3.00;1.02;;;;;;;;;;5032032;28;20064;-77
2024/03/25 00:05:09;;;;;;;2.28;1.00;;;;;;;;;;5043813;28;20499;-77
2024/03/25 00:07:35;;;;;;;3.22;1.23;;;;;;;;;;5043579;28;20079;-76
2024/03/25 00:10:01;;;;;;;3.85;1.33;;;;;;;;;;5042783;28;20029;-76
2024/03/25 00:12:26;;;;;;;4.18;1.33;;;;;;;;;;5029673;28;20029;-77
2024/03/25 00:14:51;;;;;;;5.28;1.55;;;;;;;;;;5026830;28;20036;-77
2024/03/25 00:17:16;;;;;;;3.33;1.35;;;;;;;;;;5044650;28;20040;-77
2024/03/25 00:19:42;;;;;;;2.97;1.33;;;;;;;;;;5045611;28;20017;-77
2024/03/25 00:22:07;;;;;;;4.03;1.20;;;;;;;;;;5045808;28;20041;-77
2024/03/25 00:24:32;;;;;;;2.58;1.30;;;;;;;;;;5045860;28;20029;-77
2024/03/25 00:26:57;;;;;;;3.65;1.35;;;;;;;;;;5041411;28;20033;-77
2024/03/25 00:29:23;;;;;;;3.80;1.40;;;;;;;;;;5046087;28;20029;-77
2024/03/25 00:31:48;;;;;;;2.40;1.10;;;;;;;;;;5044211;28;20029;-77
2024/03/25 00:34:13;;;;;;;2.30;1.05;;;;;;;;;;5040764;28;20116;-76
2024/03/25 00:36:38;;;;;;;2.63;1.02;;;;;;;;;;5044688;28;20080;-77
2024/03/25 00:39:04;;;;;;;5.82;1.50;;;;;;;;;;5041931;28;20159;-77
2024/03/25 00:41:29;;;;;;;3.60;2.15;;;;;;;;;;5049622;28;20102;-77
2024/03/25 00:43:54;;;;;;;3.03;1.20;;;;;;;;;;5039820;28;20034;-76
2024/03/25 00:46:19;;;;;;;3.55;1.40;;;;;;;;;;5044544;28;20029;-75
2024/03/25 00:48:44;;;;;;;3.08;1.05;;;;;;;;;;5040804;28;20040;-75
2024/03/25 00:51:10;;;;;;;3.28;0.93;;;;;;;;;;5041063;28;20038;-76
2024/03/25 00:53:35;;;;;;;2.88;1.20;;;;;;;;;;5045554;28;20032;-76
2024/03/25 00:56:00;;;;;;;2.40;1.00;;;;;;;;;;5041720;28;20567;-77
2024/03/25 00:58:25;;;;;;;2.40;1.00;;;;;;;;;;5044491;28;20091;-75
2024/03/25 01:00:50;;;;;;;2.60;0.98;;;;;;;;;;5044194;28;20041;-76
2024/03/25 01:03:16;;;;;;;2.72;0.98;;;;;;;;;;5040401;28;20067;-76
2024/03/25 01:05:41;;;;;;;4.35;1.45;;;;;;;;;;5044564;28;20052;-77
2024/03/25 01:08:07;;;;;;;1.98;0.93;;;;;;;;;;5042298;28;20037;-76
2024/03/25 01:10:32;;;;;;;2.63;1.30;;;;;;;;;;5046968;28;20029;-77
2024/03/25 01:12:57;;;;;;;2.75;1.40;;;;;;;;;;5041375;28;20026;-77
2024/03/25 01:15:22;;;;;;;2.85;1.35;;;;;;;;;;5048416;28;20701;-77
2024/03/25 01:17:48;;;;;;;4.28;1.30;;;;;;;;;;5041347;28;20036;-75
2024/03/25 01:20:13;;;;;;;3.17;1.30;;;;;;;;;;5043661;28;20036;-77
2024/03/25 01:22:39;;;;;;;3.78;1.40;;;;;;;;;;5043917;28;20044;-77
2024/03/25 01:25:04;;;;;;;2.65;1.42;;;;;;;;;;5041591;28;20607;-77
2024/03/25 01:27:29;;;;;;;2.65;1.25;;;;;;;;;;5047860;28;20029;-77
2024/03/25 01:29:54;;;;;;;3.28;1.40;;;;;;;;;;5045554;28;20501;-77
2024/03/25 01:32:20;;;;;;;3.67;2.33;;;;;;;;;;5042265;28;20029;-76
2024/03/25 01:34:45;;;;;;;2.17;1.30;;;;;;;;;;5043217;28;20037;-77
2024/03/25 01:37:10;;;;;;;3.42;1.45;;;;;;;;;;5045608;28;20033;-77
2024/03/25 01:39:37;;;;;;;2.65;1.38;;;;;;;;;;5044237;28;20091;-77
2024/03/25 01:42:02;;;;;;;2.70;1.30;;;;;;;;;;5042711;28;20048;-76
2024/03/25 01:44:27;;;;;;;3.42;1.52;;;;;;;;;;5039761;28;20042;-77
2024/03/25 01:46:54;;;;;;;3.13;1.25;;;;;;;;;;5042152;28;20405;-77
2024/03/25 01:49:20;;;;;;;1.83;0.98;;;;;;;;;;5041748;28;20036;-77
2024/03/25 01:51:45;;;;;;;2.95;1.38;;;;;;;;;;5042849;28;20033;-76
2024/03/25 01:54:14;;;;;;;3.65;1.63;;;;;;;;;;5041460;28;20041;-76
2024/03/25 01:56:41;;;;;;;2.65;1.50;;;;;;;;;;5023983;28;20033;-76
2024/03/25 01:59:06;;;;;;;3.80;1.35;;;;;;;;;;5039641;28;20048;-76
2024/03/25 02:01:32;;;;;;;2.42;1.10;;;;;;;;;;5044774;28;20033;-77
2024/03/25 02:03:57;;;;;;;2.53;0.82;;;;;;;;;;5022372;28;20360;-77
2024/03/25 02:06:23;;;;;;;3.42;1.20;;;;;;;;;;5042523;28;20021;-75
2024/03/25 02:08:49;;;;;;;5.57;1.65;;;;;;;;;;5043340;28;20083;-76
2024/03/25 02:11:15;;;;;;;4.10;1.13;;;;;;;;;;5032070;28;20041;-77
2024/03/25 02:13:40;;;;;;;5.10;1.20;;;;;;;;;;5026063;28;20628;-77
2024/03/25 02:16:05;;;;;;;4.20;1.55;;;;;;;;;;5041266;28;20029;-76
2024/03/25 02:18:31;;;;;;;2.50;1.13;;;;;;;;;;5048143;28;20028;-75
2024/03/25 02:20:57;;;;;;;6.15;1.10;;;;;;;;;;5043175;28;20040;-76
2024/03/25 02:23:22;;;;;;;2.60;1.23;;;;;;;;;;5026374;28;20485;-76
2024/03/25 02:25:49;;;;;;;3.17;1.00;;;;;;;;;;5038623;28;20033;-76
2024/03/25 02:28:14;;;;;;;2.08;1.00;;;;;;;;;;5046997;28;20115;-76
2024/03/25 02:30:40;;;;;;;2.80;1.10;;;;;;;;;;5043779;28;20588;-76
2024/03/25 02:33:05;;;;;;;2.50;1.20;;;;;;;;;;5042591;28;20033;-76
2024/03/25 02:35:31;;;;;;;3.08;1.42;;;;;;;;;;5041870;28;20071;-75
2024/03/25 02:37:57;;;;;;;3.90;1.25;;;;;;;;;;5041698;28;20084;-77
2024/03/25 02:40:22;;;;;;;4.55;1.50;;;;;;;;;;5046057;28;20045;-77
2024/03/25 02:42:48;;;;;;;5.60;1.48;;;;;;;;;;5042172;28;20086;-77
2024/03/25 02:45:13;;;;;;;5.82;2.00;;;;;;;;;;5047458;28;20701;-77
2024/03/25 02:47:38;;;;;;;6.18;2.47;;;;;;;;;;5044094;28;20393;-77
2024/03/25 02:50:04;;;;;;;6.75;2.22;;;;;;;;;;5045976;28;20032;-77
2024/03/25 02:52:29;;;;;;;5.15;2.20;;;;;;;;;;5044594;28;20063;-76
2024/03/25 02:54:54;;;;;;;5.75;2.00;;;;;;;;;;5039375;28;20037;-77
2024/03/25 02:57:20;;;;;;;5.18;2.40;;;;;;;;;;5043228;28;20057;-77
2024/03/25 02:59:45;;;;;;;10.30;2.58;;;;;;;;;;5051708;28;20029;-77
2024/03/25 03:02:10;;;;;;;5.50;2.50;;;;;;;;;;5042803;28;20040;-77
2024/03/25 03:04:36;;;;;;;4.50;2.20;;;;;;;;;;5046413;28;20050;-77
2024/03/25 03:07:01;;;;;;;4.55;2.20;;;;;;;;;;5041848;28;20049;-77
2024/03/25 03:09:26;;;;;;;3.70;1.90;;;;;;;;;;5041099;28;20017;-77
2024/03/25 03:11:51;;;;;;;4.20;1.77;;;;;;;;;;5045303;28;20732;-76
2024/03/25 03:14:17;;;;;;;4.80;2.08;;;;;;;;;;5042583;28;20033;-76
2024/03/25 03:16:42;;;;;;;5.45;2.00;;;;;;;;;;5040259;28;20504;-75
2024/03/25 03:19:07;;;;;;;3.25;1.73;;;;;;;;;;5040762;28;20494;-76
2024/03/25 03:21:32;;;;;;;7.35;2.67;;;;;;;;;;5041451;28;20131;-76
2024/03/25 03:23:57;;;;;;;8.18;2.22;;;;;;;;;;5046678;28;20560;-75
2024/03/25 03:26:26;;;;;;;4.80;2.78;;;;;;;;;;5041808;28;20033;-75
2024/03/25 03:28:52;;;;;;;5.28;2.20;;;;;;;;;;5039393;28;20045;-74
2024/03/25 03:31:17;;;;;;;6.63;2.38;;;;;;;;;;5043483;28;20942;-74
2024/03/25 03:33:42;;;;;;;5.63;2.28;;;;;;;;;;5039140;28;20026;-76
2024/03/25 03:36:08;;;;;;;6.88;2.83;;;;;;;;;;5041954;28;20037;-76
2024/03/25 03:38:33;;;;;;;7.05;2.67;;;;;;;;;;5042343;28;20021;-76
2024/03/25 03:40:59;;;;;;;6.22;2.00;;;;;;;;;;5042889;28;20398;-76
2024/03/25 03:43:24;;;;;;;5.25;2.10;;;;;;;;;;5040881;28;20401;-75
2024/03/25 03:45:49;;;;;;;4.85;2.00;;;;;;;;;;5038609;28;20037;-75
2024/03/25 03:48:14;;;;;;;5.65;2.33;;;;;;;;;;5040983;28;20033;-76
2024/03/25 03:50:39;;;;;;;5.50;1.58;;;;;;;;;;5024655;28;20033;-76
2024/03/25 03:53:05;;;;;;;4.75;2.10;;;;;;;;;;5038161;28;20030;-76
2024/03/25 03:55:30;;;;;;;5.60;2.00;;;;;;;;;;5041001;28;20040;-75
2024/03/25 03:57:55;;;;;;;3.65;1.88;;;;;;;;;;5038485;28;20026;-75
2024/03/25 04:00:20;;;;;;;5.50;1.90;;;;;;;;;;5020968;28;20505;-75
2024/03/25 04:02:45;;;;;;;4.35;1.70;;;;;;;;;;5037645;28;20520;-76
2024/03/25 04:05:11;;;;;;;3.65;1.80;;;;;;;;;;5037759;28;20029;-75
2024/03/25 04:07:36;;;;;;;4.57;1.65;;;;;;;;;;5042468;28;20029;-75
2024/03/25 04:10:01;;;;;;;4.45;1.30;;;;;;;;;;5043331;28;20116;-76
2024/03/25 04:12:27;;;;;;;4.78;1.70;;;;;;;;;;5030241;28;20029;-76
2024/03/25 04:14:56;;;;;;;5.15;2.28;;;;;;;;;;5037612;28;20030;-76
2024/03/25 04:17:21;;;;;;;5.85;2.30;;;;;;;;;;5033845;28;20029;-75
2024/03/25 04:19:50;;;;;;;3.67;2.10;;;;;;;;;;5044874;28;20021;-76
2024/03/25 04:22:16;;;;;;;7.30;2.15;;;;;;;;;;5049215;28;20052;-75
2024/03/25 04:24:42;;;;;;;5.88;1.80;;;;;;;;;;5044984;28;20064;-75
2024/03/25 04:27:07;;;;;;;6.13;2.10;;;;;;;;;;5044989;28;20041;-75
2024/03/25 04:29:32;;;;;;;5.47;2.70;;;;;;;;;;5043519;28;20451;-75
2024/03/25 04:31:57;;;;;;;5.13;2.15;;;;;;;;;;5041664;28;20025;-75
2024/03/25 04:34:23;;;;;;;5.50;2.78;;;;;;;;;;5044624;28;20088;-75
2024/03/25 04:36:48;;;;;;;7.28;2.30;;;;;;;;;;5029007;28;20033;-75
2024/03/25 04:39:14;;;;;;;3.85;2.20;;;;;;;;;;5048192;28;20032;-75
2024/03/25 04:41:40;;;;;;;4.63;2.40;;;;;;;;;;5045264;28;20485;-75
2024/03/25 04:44:05;;;;;;;5.10;2.60;;;;;;;;;;5045997;28;20033;-74
2024/03/25 04:46:31;;;;;;;5.38;2.67;;;;;;;;;;5026382;28;20025;-74
2024/03/25 04:48:56;;;;;;;5.05;2.97;;;;;;;;;;5045440;28;20036;-75
2024/03/25 04:51:21;;;;;;;6.68;3.05;;;;;;;;;;5048513;28;20038;-76
2024/03/25 04:53:46;;;;;;;4.93;2.67;;;;;;;;;;5043288;28;20695;-75
2024/03/25 04:56:11;;;;;;;4.45;2.78;;;;;;;;;;5045419;28;20516;-76
2024/03/25 04:58:37;;;;;;;6.72;3.17;;;;;;;;;;5042443;28;20040;-75
2024/03/25 05:01:02;;;;;;;7.47;3.08;;;;;;;;;;5027202;28;20033;-76
2024/03/25 05:03:27;;;;;;;5.80;3.28;;;;;;;;;;5044532;28;20041;-75
2024/03/25 05:05:53;;;;;;;7.00;3.55;;;;;;;;;;5041618;28;20095;-74
2024/03/25 05:08:18;;;;;;;5.28;3.00;;;;;;;;;;5045465;28;20104;-75
2024/03/25 05:10:43;;;;;;;7.38;2.47;;;;;;;;;;5043829;28;20031;-75
2024/03/25 05:13:08;;;;;;;5.18;3.03;;;;;;;;;;5046310;28;20025;-75
2024/03/25 05:15:35;;;;;;;7.03;2.92;;;;;;;;;;5042698;28;20090;-75
2024/03/25 05:18:00;;;;;;;4.85;2.25;;;;;;;;;;5041350;28;20037;-77
2024/03/25 05:20:26;;;;;;;4.43;2.38;;;;;;;;;;5027592;28;20082;-77
2024/03/25 05:22:51;;;;;;;5.88;2.92;;;;;;;;;;5042877;28;20389;-75
2024/03/25 05:25:17;;;;;;;4.25;2.65;;;;;;;;;;5042986;28;20033;-77
2024/03/25 05:27:42;;;;;;;6.55;3.38;;;;;;;;;;5039891;28;20028;-75
2024/03/25 05:30:07;;;;;;;4.43;2.33;;;;;;;;;;5044794;28;20032;-75
2024/03/25 05:32:32;;;;;;;5.47;2.97;;;;;;;;;;5047783;28;20029;-76
2024/03/25 05:34:57;;;;;;;4.85;2.80;;;;;;;;;;5044907;28;20025;-76
2024/03/25 05:37:23;;;;;;;8.05;2.90;;;;;;;;;;5047662;28;20489;-75
2024/03/25 05:39:48;;;;;;;7.60;2.50;;;;;;;;;;5030310;28;20033;-74
2024/03/25 05:42:13;;;;;;;6.22;2.53;;;;;;;;;;5047873;28;20114;-75
2024/03/25 05:44:38;;;;;;;7.10;3.10;;;;;;;;;;5029061;28;20033;-76
2024/03/25 05:47:03;;;;;;;4.93;2.47;;;;;;;;;;5047043;28;20071;-75
2024/03/25 05:49:29;;;;;;;4.68;2.70;;;;;;;;;;5049174;28;20021;-74
2024/03/25 05:51:54;;;;;;;5.38;3.10;;;;;;;;;;5024094;28;20083;-75
2024/03/25 05:54:19;;;;;;;8.25;3.00;;;;;;;;;;5047072;28;20094;-75
2024/03/25 05:56:44;;;;;;;6.47;2.65;;;;;;;;;;5047909;28;20025;-74
2024/03/25 05:59:09;;;;;;;6.40;2.42;;;;;;;;;;5044281;28;20040;-74
2024/03/25 06:01:37;;;;;;;5.03;3.17;;;;;;;;;;5046068;28;20465;-75
2024/03/25 06:04:02;;;;;;;6.55;2.47;;;;;;;;;;5039374;28;20111;-75
2024/03/25 06:06:27;;;;;;;5.75;1.98;;;;;;;;;;5041339;28;20430;-75
2024/03/25 06:08:53;;;;;;;3.33;1.55;;;;;;;;;;5029092;28;20022;-75
2024/03/25 06:11:18;;;;;;;3.15;1.60;;;;;;;;;;5044564;28;20032;-74
2024/03/25 06:13:47;;;;;;;5.03;1.60;;;;;;;;;;5042692;28;20017;-75
2024/03/25 06:16:12;;;;;;;2.95;1.45;;;;;;;;;;5039982;28;20033;-75
2024/03/25 06:18:37;;;;;;;5.05;1.67;;;;;;;;;;5041995;28;20056;-75
2024/03/25 06:21:03;;;;;;;2.70;1.00;;;;;;;;;;5038322;28;20108;-75
2024/03/25 06:23:28;;;;;;;5.05;1.33;;;;;;;;;;5043573;28;20112;-75
2024/03/25 06:25:54;;;;;;;3.60;1.08;;;;;;;;;;5047263;28;20025;-75
2024/03/25 06:28:20;;;;;;;3.65;1.40;;;;;;;;;;5042844;28;20028;-75
2024/03/25 06:36:13;;;;;;;4.97;1.77;;;;;;;;;;5042133;28;20148;-75
2024/03/25 06:38:39;;;;;;;4.22;1.60;;;;;;;;;;5042010;28;20108;-74
2024/03/25 06:41:04;;;;;;;6.32;1.95;;;;;;;;;;5042020;28;20037;-75
2024/03/25 06:43:29;;;;;;;6.38;1.95;;;;;;;;;;5041036;28;20043;-75
2024/03/25 06:45:54;;;;;;;6.80;1.92;;;;;;;;;;5041263;28;20528;-74
2024/03/25 06:48:20;;;;;;;5.80;2.10;;;;;;;;;;5041918;28;20393;-75
2024/03/25 06:50:57;;;;;;;6.65;2.03;;;;;;;;;;5042170;28;20025;-75
2024/03/25 06:53:23;;;;;;;4.10;1.60;;;;;;;;;;5038484;28;20021;-76
2024/03/25 06:55:58;;;;;;;4.40;1.75;;;;;;;;;;5044126;28;20094;-75
2024/03/25 06:58:23;;;;;;;4.88;2.30;;;;;;;;;;5040179;28;20044;-74
2024/03/25 07:00:49;;;;;;;4.80;2.08;;;;;;;;;;5041021;28;20036;-75
2024/03/25 07:03:15;;;;;;;6.22;1.88;;;;;;;;;;5041614;28;20041;-75
2024/03/25 07:05:40;;;;;;;6.45;2.78;;;;;;;;;;5039120;28;20064;-75
2024/03/25 07:08:05;;;;;;;5.70;2.55;;;;;;;;;;5047658;28;20120;-75
2024/03/25 07:10:30;;;;;;;4.50;2.10;;;;;;;;;;5040302;28;20029;-75
2024/03/25 07:12:56;;;;;;;5.75;2.10;;;;;;;;;;5039777;28;20105;-75
2024/03/25 07:15:21;;;;;;;6.43;2.08;;;;;;;;;;5043160;28;20445;-75
2024/03/25 07:17:47;;;;;;;4.63;2.28;;;;;;;;;;5039949;28;20048;-75
2024/03/25 07:20:12;;;;;;;6.88;1.88;;;;;;;;;;5035359;28;20029;-75
2024/03/25 07:22:37;;;;;;;6.10;1.98;;;;;;;;;;5031337;28;20056;-75
2024/03/25 07:25:03;;;;;;;4.53;2.03;;;;;;;;;;5038078;28;20029;-75
2024/03/25 07:27:28;;;;;;;5.43;2.35;;;;;;;;;;5044791;28;20501;-75
2024/03/25 07:29:53;;;;;;;4.55;1.95;;;;;;;;;;5038726;28;20052;-75
2024/03/25 07:32:18;;;;;;;5.68;2.00;;;;;;;;;;5028509;28;20053;-74
2024/03/25 07:34:44;;;;;;;3.80;1.60;;;;;;;;;;5042057;28;20460;-75
2024/03/25 07:37:09;;;;;;;4.97;1.90;;;;;;;;;;5043091;28;20039;-75
2024/03/25 07:39:34;;;;;;;5.65;1.58;;;;;;;;;;5044439;28;20540;-75
2024/03/25 07:41:59;;;;;;;6.22;1.70;;;;;;;;;;5038398;28;20030;-75
2024/03/25 07:44:25;;;;;;;4.75;1.60;;;;;;;;;;5031065;28;20057;-75
2024/03/25 07:46:50;;;;;;;4.10;1.50;;;;;;;;;;5046440;28;20116;-75
2024/03/25 07:49:15;;;;;;;4.20;1.60;;;;;;;;;;5044271;28;20112;-75
2024/03/25 07:51:40;;;;;;;4.00;1.92;;;;;;;;;;5041899;28;20029;-75
2024/03/25 07:54:05;;;;;;;8.98;2.00;;;;;;;;;;5040346;28;20030;-75
2024/03/25 07:56:32;;;;;;;5.95;2.20;;;;;;;;;;5048531;28;20029;-74
2024/03/25 07:58:59;;;;;;;4.80;2.08;;;;;;;;;;5042237;28;20029;-75
2024/03/25 08:01:25;;;;;;;4.57;2.00;;;;;;;;;;5042600;28;20108;-74
2024/03/25 08:03:50;;;;;;;5.25;2.40;;;;;;;;;;5044579;28;20411;-75
2024/03/25 08:06:15;;;;;;;4.13;1.80;;;;;;;;;;5048789;28;20052;-74
2024/03/25 08:08:40;;;;;;;4.38;2.00;;;;;;;;;;5046983;28;20444;-75
2024/03/25 08:11:06;;;;;;;7.03;2.20;;;;;;;;;;5042175;28;20797;-75
2024/03/25 08:13:31;;;;;;;5.53;2.05;;;;;;;;;;5044841;28;20017;-75
2024/03/25 08:15:57;;;;;;;6.25;2.80;;;;;;;;;;5046392;28;20044;-75
2024/03/25 08:18:22;;;;;;;7.10;2.40;;;;;;;;;;5047877;28;20037;-74
2024/03/25 08:20:47;;;;;;;3.38;2.03;;;;;;;;;;5045204;28;20493;-75
2024/03/25 08:23:12;;;;;;;5.82;2.30;;;;;;;;;;5044769;28;20041;-75
2024/03/25 08:25:37;;;;;;;5.65;2.67;;;;;;;;;;5033168;28;20059;-75
2024/03/25 08:28:03;;;;;;;5.93;2.42;;;;;;;;;;5025935;28;20033;-75
2024/03/25 08:30:28;;;;;;;7.95;2.63;;;;;;;;;;5042846;28;20029;-74
2024/03/25 08:32:53;;;;;;;5.85;2.38;;;;;;;;;;5026153;28;20053;-75
2024/03/25 08:35:18;;;;;;;6.85;2.35;;;;;;;;;;5049934;28;20112;-74
2024/03/25 08:37:43;;;;;;;7.80;2.25;;;;;;;;;;5029703;28;20025;-75
2024/03/25 08:40:09;;;;;;;6.47;2.35;;;;;;;;;;5047148;28;20595;-74
2024/03/25 08:42:34;;;;;;;5.05;2.60;;;;;;;;;;5031257;28;20028;-74
2024/03/25 08:44:59;;;;;;;6.32;2.53;;;;;;;;;;5042989;28;20449;-75
2024/03/25 08:47:25;;;;;;;7.63;2.75;;;;;;;;;;5042499;28;20048;-74
2024/03/25 08:49:50;;;;;;;4.82;2.50;;;;;;;;;;5042921;28;20083;-74
2024/03/25 08:52:16;;;;;;;5.30;2.00;;;;;;;;;;5028677;28;20437;-74
2024/03/25 08:54:41;;;;;;;7.50;2.40;;;;;;;;;;5044100;28;20033;-74
2024/03/25 08:57:06;;;;;;;7.47;2.83;;;;;;;;;;5051049;28;20079;-74
2024/03/25 08:59:32;;;;;;;5.95;2.47;;;;;;;;;;5050238;28;20029;-74
2024/03/25 09:01:57;;;;;;;7.50;2.55;;;;;;;;;;5044530;28;20455;-74
2024/03/25 09:04:22;;;;;;;7.40;2.28;;;;;;;;;;5043895;28;20036;-75
2024/03/25 09:06:47;;;;;;;4.95;1.98;;;;;;;;;;5045307;28;20027;-75
2024/03/25 09:11:57;;;;;;;3.50;2.22;;;;;;;;;;5044691;28;20378;-75
2024/03/25 09:14:22;;;;;;;4.88;2.50;;;;;;;;;;5041250;28;20060;-75
2024/03/25 09:16:47;;;;;;;7.68;2.63;;;;;;;;;;5043008;28;20044;-74
2024/03/25 09:19:13;;;;;;;3.97;2.03;;;;;;;;;;5039612;28;20760;-75
2024/03/25 09:21:38;;;;;;;4.43;2.38;;;;;;;;;;5047297;28;20055;-75
2024/03/25 09:24:03;;;;;;;5.80;2.72;;;;;;;;;;5039958;28;20406;-75
2024/03/25 09:26:28;;;;;;;7.05;2.72;;;;;;;;;;5041411;28;20025;-75
2024/03/25 09:28:53;;;;;;;5.55;2.28;;;;;;;;;;5042586;28;20104;-75
2024/03/25 09:31:19;;;;;;;4.45;2.25;;;;;;;;;;5045972;28;20106;-75
2024/03/25 09:33:44;;;;;;;6.57;2.33;;;;;;;;;;5042266;28;20394;-75
2024/03/25 09:36:11;;;;;;;7.03;2.75;;;;;;;;;;5041876;28;20065;-75
2024/03/25 09:38:36;;;;;;;5.53;2.50;;;;;;;;;;5026598;28;20433;-75
2024/03/25 09:41:02;;;;;;;3.78;1.90;;;;;;;;;;5042485;28;20025;-75
2024/03/25 09:43:37;;;;;;;6.15;2.53;;;;;;;;;;5043255;28;20139;-75
2024/03/25 09:46:02;;;;;;;3.63;1.50;;;;;;;;;;5039714;28;20033;-75
2024/03/25 09:48:28;;;;;;;8.80;2.80;;;;;;;;;;5043077;28;20025;-75
2024/03/25 09:50:55;;;;;;;5.47;2.00;;;;;;;;;;5043539;28;20025;-75
2024/03/25 09:53:20;;;;;;;5.03;1.60;;;;;;;;;;5041545;28;20064;-75
2024/03/25 09:55:46;;;;;;;4.47;1.77;;;;;;;;;;5043992;28;20473;-75
2024/03/25 09:58:11;;;;;;;3.58;1.77;;;;;;;;;;5039526;28;20033;-75
2024/03/25 10:00:37;;;;;;;6.63;1.63;;;;;;;;;;5030954;28;20037;-75
2024/03/25 10:03:02;;;;;;;5.70;2.15;;;;;;;;;;5042246;28;20029;-75
2024/03/25 10:05:30;;;;;;;5.10;2.60;;;;;;;;;;5047277;28;20035;-75
2024/03/25 10:07:55;;;;;;;3.50;1.55;;;;;;;;;;5048260;28;20104;-75
2024/03/25 10:10:21;;;;;;;3.08;1.70;;;;;;;;;;5045475;28;20099;-75
2024/03/25 10:12:46;;;;;;;5.22;1.58;;;;;;;;;;5046037;28;20082;-75
2024/03/25 10:15:17;;;;;;;6.57;1.77;;;;;;;;;;5039850;28;20448;-75
2024/03/25 10:17:43;;;;;;;5.65;1.80;;;;;;;;;;5043842;28;20028;-75
2024/03/25 10:20:13;;;;;;;3.88;1.90;;;;;;;;;;5046550;28;20386;-75
2024/03/25 10:22:46;;;;;;;4.55;1.80;;;;;;;;;;5042608;28;20025;-75
2024/03/25 10:25:21;;;;;;;5.03;2.03;;;;;;;;;;5038611;28;20566;-75
2024/03/25 10:27:56;;;;;;;6.65;2.00;;;;;;;;;;5041467;28;20120;-75
2024/03/25 10:30:22;;;;;;;6.97;2.20;;;;;;;;;;5042638;28;20021;-75
2024/03/25 10:32:57;;;;;;;4.32;1.90;;;;;;;;;;5042804;28;20048;-75
2024/03/25 10:35:23;;;;;;;4.45;1.85;;;;;;;;;;5041280;28;20389;-75
2024/03/25 10:37:48;;;;;;;9.85;2.40;;;;;;;;;;5030763;28;20063;-75
2024/03/25 10:40:13;;;;;;;4.38;1.95;;;;;;;;;;5045643;28;20033;-75
2024/03/25 10:42:39;;;;;;;5.50;1.83;;;;;;;;;;5046843;28;20089;-75
2024/03/25 10:45:04;;;;;;;3.80;2.15;;;;;;;;;;5038842;28;20414;-75
2024/03/25 10:47:30;;;;;;;4.78;2.10;;;;;;;;;;5038915;28;20043;-75
2024/03/25 10:49:56;;;;;;;3.60;1.73;;;;;;;;;;5031965;28;20029;-75
2024/03/25 10:52:23;;;;;;;3.35;1.45;;;;;;;;;;5040791;28;20029;-75
2024/03/25 10:54:49;;;;;;;3.88;1.40;;;;;;;;;;5029377;28;20405;-75
2024/03/25 10:57:14;;;;;;;3.92;1.70;;;;;;;;;;5039722;28;20034;-75
2024/03/25 10:59:41;;;;;;;5.10;1.80;;;;;;;;;;5041135;28;20017;-75
2024/03/25 11:02:07;;;;;;;4.22;1.75;;;;;;;;;;5038540;28;20419;-74
2024/03/25 11:04:32;;;;;;;5.95;2.17;;;;;;;;;;5047725;28;20083;-75
2024/03/25 11:07:10;;;;;;;4.38;2.00;;;;;;;;;;5047347;28;20051;-75
2024/03/25 11:09:35;;;;;;;6.75;2.45;;;;;;;;;;5038412;28;20094;-75
2024/03/25 11:12:01;;;;;;;4.82;1.90;;;;;;;;;;5041431;28;20037;-74
2024/03/25 11:14:27;;;;;;;4.97;1.60;;;;;;;;;;5043126;28;20034;-74
2024/03/25 11:16:53;;;;;;;5.43;1.75;;;;;;;;;;5042285;28;20481;-75
2024/03/25 11:19:18;;;;;;;4.60;1.85;;;;;;;;;;5045645;28;20025;-74
2024/03/25 11:21:44;;;;;;;6.97;2.50;;;;;;;;;;5029027;28;20091;-75
2024/03/25 11:24:09;;;;;;;4.55;1.50;;;;;;;;;;5047989;28;20029;-75
2024/03/25 11:26:37;;;;;;;6.50;1.92;;;;;;;;;;5046526;28;20028;-74
2024/03/25 11:29:02;;;;;;;2.85;1.50;;;;;;;;;;5024661;28;20032;-75
2024/03/25 11:31:27;;;;;;;4.10;1.80;;;;;;;;;;5046698;28;20029;-74
2024/03/25 11:33:53;;;;;;;3.83;1.63;;;;;;;;;;5048797;28;20025;-74
2024/03/25 11:36:20;;;;;;;3.35;1.30;;;;;;;;;;5052079;28;20033;-75
2024/03/25 11:38:46;;;;;;;3.65;1.30;;;;;;;;;;5022535;28;20036;-74
2024/03/25 11:41:11;;;;;;;5.03;1.45;;;;;;;;;;5050824;28;20033;-75
2024/03/25 11:43:36;;;;;;;5.72;1.98;;;;;;;;;;5049296;28;20025;-74
2024/03/25 11:46:02;;;;;;;3.05;1.20;;;;;;;;;;5044984;28;20036;-74
2024/03/25 11:48:32;;;;;;;3.08;1.25;;;;;;;;;;5043725;28;20104;-74
2024/03/25 11:50:57;;;;;;;4.28;1.50;;;;;;;;;;5032646;28;20021;-74
2024/03/25 11:53:22;;;;;;;4.28;1.30;;;;;;;;;;5044210;28;20401;-75
2024/03/25 11:55:48;;;;;;;3.28;1.40;;;;;;;;;;5045804;28;20656;-75
2024/03/25 11:58:13;;;;;;;4.30;1.25;;;;;;;;;;5043545;28;20039;-75
2024/03/25 12:00:45;;;;;;;4.55;1.48;;;;;;;;;;5051117;28;20501;-75
2024/03/25 12:03:12;;;;;;;4.82;1.27;;;;;;;;;;5043350;28;20099;-75
2024/03/25 12:05:39;;;;;;;4.53;1.40;;;;;;;;;;5045508;28;20021;-75
2024/03/25 12:08:06;;;;;;;5.47;1.45;;;;;;;;;;5044759;28;20025;-75
2024/03/25 12:13:15;;;;;;;4.25;1.20;;;;;;;;;;5042582;28;20649;-75
2024/03/25 12:15:40;;;;;;;4.20;1.50;;;;;;;;;;5046175;28;20082;-75
2024/03/25 12:18:06;;;;;;;3.42;1.42;;;;;;;;;;5028804;28;20029;-75
2024/03/25 12:20:31;;;;;;;3.90;1.50;;;;;;;;;;5045164;28;20475;-74
2024/03/25 12:22:56;;;;;;;8.00;1.50;;;;;;;;;;5045138;28;20033;-74
2024/03/25 12:25:22;;;;;;;2.55;1.33;;;;;;;;;;5041354;28;20033;-75
2024/03/25 12:27:47;;;;;;;3.22;1.45;;;;;;;;;;5044377;28;20033;-75
2024/03/25 12:30:13;;;;;;;3.45;1.50;;;;;;;;;;5032896;28;20105;-75
2024/03/25 12:32:39;;;;;;;3.90;1.40;;;;;;;;;;5052707;28;20021;-75
2024/03/25 12:35:08;;;;;;;4.30;1.70;;;;;;;;;;5041263;28;20045;-75
2024/03/25 12:37:34;;;;;;;3.33;1.50;;;;;;;;;;5046592;28;20481;-75
2024/03/25 12:39:59;;;;;;;3.63;1.35;;;;;;;;;;5048888;28;20025;-75
2024/03/25 12:42:26;;;;;;;2.92;1.40;;;;;;;;;;5041804;28;20402;-75
2024/03/25 12:44:52;;;;;;;3.65;1.50;;;;;;;;;;5047160;28;20060;-75
2024/03/25 12:47:17;;;;;;;3.33;1.40;;;;;;;;;;5041893;28;20068;-75
2024/03/25 12:49:42;;;;;;;2.80;1.27;;;;;;;;;;5043487;28;20028;-75
2024/03/25 12:52:07;;;;;;;2.75;1.38;;;;;;;;;;5042857;28;20025;-75
2024/03/25 12:54:33;;;;;;;3.75;1.35;;;;;;;;;;5044744;28;20025;-75
2024/03/25 12:56:58;;;;;;;3.22;1.20;;;;;;;;;;5042588;28;20029;-74
2024/03/25 12:59:23;;;;;;;4.60;1.27;;;;;;;;;;5047721;28;20029;-75
2024/03/25 13:01:51;;;;;;;2.05;0.98;;;;;;;;;;5050743;28;20393;-74
2024/03/25 13:04:16;;;;;;;3.05;1.25;;;;;;;;;;5041855;28;20044;-74
2024/03/25 13:06:41;;;;;;;2.90;1.08;;;;;;;;;;5040481;28;20025;-74
2024/03/25 13:09:06;;;;;;;3.53;1.15;;;;;;;;;;5043751;28;20021;-75
2024/03/25 13:11:32;;;;;;;3.28;1.15;;;;;;;;;;5044010;28;20036;-74
2024/03/25 13:13:57;;;;;;;4.00;1.10;;;;;;;;;;5042042;28;20120;-75
2024/03/25 13:16:22;;;;;;;4.03;1.20;;;;;;;;;;5026629;28;20025;-75
2024/03/25 13:18:47;;;;;;;3.33;1.35;;;;;;;;;;5042084;28;20037;-74
2024/03/25 13:21:12;;;;;;;4.53;1.20;;;;;;;;;;5043807;28;20051;-74
2024/03/25 13:23:37;;;;;;;3.17;1.23;;;;;;;;;;5026584;28;20029;-75
2024/03/25 13:26:03;;;;;;;3.40;1.60;;;;;;;;;;5041527;28;20029;-74
2024/03/25 13:28:28;;;;;;;3.38;1.70;;;;;;;;;;5042374;28;20048;-75
2024/03/25 13:30:53;;;;;;;5.80;1.60;;;;;;;;;;5043440;28;20385;-75
2024/03/25 13:33:19;;;;;;;2.45;1.20;;;;;;;;;;5041295;28;20022;-75
2024/03/25 13:35:45;;;;;;;3.72;1.88;;;;;;;;;;5041909;28;20486;-75
2024/03/25 13:38:10;;;;;;;4.15;1.70;;;;;;;;;;5041618;28;20041;-75
2024/03/25 13:40:35;;;;;;;3.60;1.40;;;;;;;;;;5046345;28;20040;-75
2024/03/25 13:43:01;;;;;;;4.03;1.50;;;;;;;;;;5045816;28;20037;-75
2024/03/25 13:45:26;;;;;;;5.28;1.52;;;;;;;;;;5046665;28;20035;-75
2024/03/25 13:47:51;;;;;;;3.50;1.10;;;;;;;;;;5039917;28;20440;-75
2024/03/25 13:50:17;;;;;;;4.40;1.10;;;;;;;;;;5029417;28;20025;-75
2024/03/25 13:52:42;;;;;;;3.13;1.30;;;;;;;;;;5043616;28;20039;-75
2024/03/25 13:55:07;;;;;;;4.57;1.92;;;;;;;;;;5040131;28;20095;-75
2024/03/25 13:57:32;;;;;;;4.00;1.20;;;;;;;;;;5045099;28;20036;-75
2024/03/25 14:00:00;;;;;;;3.35;1.05;;;;;;;;;;5039824;28;20433;-75
2024/03/25 14:02:25;;;;;;;4.15;1.40;;;;;;;;;;5044309;28;20036;-74
2024/03/25 14:04:51;;;;;;;2.08;0.80;;;;;;;;;;5047338;28;20029;-75
2024/03/25 14:07:16;;;;;;;2.95;0.98;;;;;;;;;;5049505;28;20542;-75
2024/03/25 14:09:41;;;;;;;2.85;1.17;;;;;;;;;;5045842;28;20032;-75
2024/03/25 14:12:06;;;;;;;3.65;1.30;;;;;;;;;;5042799;28;20109;-75
2024/03/25 14:14:32;;;;;;;2.55;1.15;;;;;;;;;;5046391;28;20728;-75
2024/03/25 14:16:57;;;;;;;3.22;1.15;;;;;;;;;;5041893;28;20112;-75
2024/03/25 14:19:22;;;;;;;4.07;1.80;;;;;;;;;;5042795;28;20048;-75
2024/03/25 14:21:48;;;;;;;5.05;2.00;;;;;;;;;;5044733;28;20397;-75
2024/03/25 14:24:13;;;;;;;3.05;1.40;;;;;;;;;;5042999;28;20037;-75
2024/03/25 14:26:38;;;;;;;3.95;1.30;;;;;;;;;;5031106;28;20025;-75
2024/03/25 14:29:04;;;;;;;2.42;1.30;;;;;;;;;;5040767;28;20025;-75
2024/03/25 14:31:29;;;;;;;3.53;1.50;;;;;;;;;;5050066;28;20013;-74
2024/03/25 14:33:55;;;;;;;2.25;1.10;;;;;;;;;;5040634;28;20556;-75
2024/03/25 14:36:20;;;;;;;4.07;1.00;;;;;;;;;;5045631;28;20045;-75
2024/03/25 14:38:45;;;;;;;3.17;1.60;;;;;;;;;;5045254;28;20078;-74
2024/03/25 14:41:18;;;;;;;3.38;1.13;;;;;;;;;;5043905;28;20040;-74
2024/03/25 14:43:43;;;;;;;6.68;1.25;;;;;;;;;;5038857;28;20067;-75